sensor_id;sensor_type;location;lat;lon;timestamp;P1;durP1;ratioP1;P2;durP2;ratioP2
31402;SDS011;18039;52.188;21.024;2022-10-31T00:01:20;27.23;;;14.98;;
31402;SDS011;18039;52.188;21.024;2022-10-31T00:03:49;33.30;;;16.77;;
31402;SDS011;18039;52.188;21.024;2022-10-31T00:06:17;30.92;;;15.70;;
31402;SDS011;18039;52.188;21.024;2022-10-31T00:08:54;26.63;;;15.80;;
31402;SDS011;18039;52.188;21.024;2022-10-31T00:11:29;28.25;;;15.20;;
31402;SDS011;18039;52.188;21.024;2022-10-31T00:13:57;28.88;;;15.88;;
31402;SDS011;18039;52.188;21.024;2022-10-31T00:16:26;27.58;;;15.75;;
31402;SDS011;18039;52.188;21.024;2022-10-31T00:18:55;31.52;;;16.23;;
31402;SDS011;18039;52.188;21.024;2022-10-31T00:21:24;27.60;;;16.00;;
31402;SDS011;18039;52.188;21.024;2022-10-31T00:23:52;22.35;;;14.75;;
31402;SDS011;18039;52.188;21.024;2022-10-31T00:26:19;27.88;;;15.98;;
31402;SDS011;18039;52.188;21.024;2022-10-31T00:28:47;28.10;;;15.68;;
31402;SDS011;18039;52.188;21.024;2022-10-31T00:31:15;27.70;;;15.45;;
31402;SDS011;18039;52.188;21.024;2022-10-31T00:33:43;26.83;;;14.57;;
31402;SDS011;18039;52.188;21.024;2022-10-31T00:36:11;28.67;;;15.27;;
31402;SDS011;18039;52.188;21.024;2022-10-31T00:38:41;32.60;;;15.10;;
31402;SDS011;18039;52.188;21.024;2022-10-31T00:41:09;28.98;;;16.35;;
31402;SDS011;18039;52.188;21.024;2022-10-31T00:46:08;24.73;;;14.70;;
31402;SDS011;18039;52.188;21.024;2022-10-31T00:48:35;25.88;;;15.35;;
31402;SDS011;18039;52.188;21.024;2022-10-31T00:51:03;26.23;;;15.00;;
31402;SDS011;18039;52.188;21.024;2022-10-31T00:53:30;29.50;;;16.05;;
31402;SDS011;18039;52.188;21.024;2022-10-31T00:55:58;25.33;;;14.93;;
31402;SDS011;18039;52.188;21.024;2022-10-31T00:58:26;26.10;;;15.15;;
31402;SDS011;18039;52.188;21.024;2022-10-31T01:00:54;29.95;;;16.30;;
31402;SDS011;18039;52.188;21.024;2022-10-31T01:03:26;25.90;;;15.63;;
31402;SDS011;18039;52.188;21.024;2022-10-31T01:08:34;36.35;;;17.25;;
31402;SDS011;18039;52.188;21.024;2022-10-31T01:13:34;29.13;;;15.63;;
31402;SDS011;18039;52.188;21.024;2022-10-31T01:16:03;33.60;;;17.33;;
31402;SDS011;18039;52.188;21.024;2022-10-31T01:18:32;27.65;;;16.73;;
31402;SDS011;18039;52.188;21.024;2022-10-31T01:21:01;33.90;;;15.90;;
31402;SDS011;18039;52.188;21.024;2022-10-31T01:23:30;28.80;;;16.20;;
31402;SDS011;18039;52.188;21.024;2022-10-31T01:26:15;29.05;;;16.95;;
31402;SDS011;18039;52.188;21.024;2022-10-31T01:28:48;28.52;;;15.82;;
31402;SDS011;18039;52.188;21.024;2022-10-31T01:31:21;31.65;;;15.90;;
31402;SDS011;18039;52.188;21.024;2022-10-31T01:33:50;28.33;;;16.20;;
31402;SDS011;18039;52.188;21.024;2022-10-31T01:36:20;31.33;;;16.13;;
31402;SDS011;18039;52.188;21.024;2022-10-31T01:38:52;32.42;;;16.13;;
31402;SDS011;18039;52.188;21.024;2022-10-31T01:41:23;26.95;;;16.17;;
31402;SDS011;18039;52.188;21.024;2022-10-31T01:44:00;31.33;;;17.27;;
31402;SDS011;18039;52.188;21.024;2022-10-31T01:46:39;32.47;;;16.45;;
31402;SDS011;18039;52.188;21.024;2022-10-31T01:49:13;29.67;;;17.03;;
31402;SDS011;18039;52.188;21.024;2022-10-31T01:51:48;31.75;;;18.10;;
31402;SDS011;18039;52.188;21.024;2022-10-31T01:54:21;37.30;;;18.90;;
31402;SDS011;18039;52.188;21.024;2022-10-31T01:56:52;34.30;;;18.40;;
31402;SDS011;18039;52.188;21.024;2022-10-31T01:59:23;34.05;;;19.42;;
31402;SDS011;18039;52.188;21.024;2022-10-31T02:01:54;31.10;;;18.80;;
31402;SDS011;18039;52.188;21.024;2022-10-31T02:04:21;34.80;;;19.13;;
31402;SDS011;18039;52.188;21.024;2022-10-31T02:06:56;33.03;;;20.13;;
31402;SDS011;18039;52.188;21.024;2022-10-31T02:09:28;34.17;;;19.10;;
31402;SDS011;18039;52.188;21.024;2022-10-31T02:11:58;34.45;;;20.05;;
31402;SDS011;18039;52.188;21.024;2022-10-31T02:14:28;35.63;;;19.25;;
31402;SDS011;18039;52.188;21.024;2022-10-31T02:16:57;35.38;;;18.90;;
31402;SDS011;18039;52.188;21.024;2022-10-31T02:19:32;32.35;;;19.63;;
31402;SDS011;18039;52.188;21.024;2022-10-31T02:33:55;31.38;;;18.23;;
31402;SDS011;18039;52.188;21.024;2022-10-31T02:47:13;36.75;;;22.33;;
31402;SDS011;18039;52.188;21.024;2022-10-31T02:49:59;38.47;;;21.98;;
31402;SDS011;18039;52.188;21.024;2022-10-31T02:52:34;43.75;;;24.65;;
31402;SDS011;18039;52.188;21.024;2022-10-31T02:55:39;42.42;;;25.10;;
31402;SDS011;18039;52.188;21.024;2022-10-31T03:00:37;40.03;;;24.30;;
31402;SDS011;18039;52.188;21.024;2022-10-31T03:06:20;39.60;;;24.92;;
31402;SDS011;18039;52.188;21.024;2022-10-31T03:11:50;42.42;;;26.08;;
31402;SDS011;18039;52.188;21.024;2022-10-31T03:14:26;39.42;;;23.50;;
31402;SDS011;18039;52.188;21.024;2022-10-31T03:17:06;39.75;;;23.13;;
31402;SDS011;18039;52.188;21.024;2022-10-31T03:19:41;35.85;;;22.13;;
31402;SDS011;18039;52.188;21.024;2022-10-31T03:22:17;40.40;;;23.55;;
31402;SDS011;18039;52.188;21.024;2022-10-31T03:24:58;38.67;;;24.08;;
31402;SDS011;18039;52.188;21.024;2022-10-31T03:27:28;35.58;;;22.75;;
31402;SDS011;18039;52.188;21.024;2022-10-31T03:30:02;40.75;;;22.58;;
31402;SDS011;18039;52.188;21.024;2022-10-31T03:32:51;34.25;;;21.98;;
31402;SDS011;18039;52.188;21.024;2022-10-31T03:35:22;43.22;;;24.88;;
31402;SDS011;18039;52.188;21.024;2022-10-31T03:37:51;38.38;;;23.67;;
31402;SDS011;18039;52.188;21.024;2022-10-31T03:40:21;37.80;;;23.00;;
31402;SDS011;18039;52.188;21.024;2022-10-31T03:42:57;42.33;;;23.35;;
31402;SDS011;18039;52.188;21.024;2022-10-31T03:45:28;40.30;;;23.55;;
31402;SDS011;18039;52.188;21.024;2022-10-31T03:48:00;41.55;;;25.00;;
31402;SDS011;18039;52.188;21.024;2022-10-31T03:50:30;40.42;;;23.50;;
31402;SDS011;18039;52.188;21.024;2022-10-31T03:53:13;39.95;;;23.90;;
31402;SDS011;18039;52.188;21.024;2022-10-31T03:55:49;45.35;;;24.08;;
31402;SDS011;18039;52.188;21.024;2022-10-31T03:58:24;40.22;;;24.38;;
31402;SDS011;18039;52.188;21.024;2022-10-31T04:00:55;43.22;;;24.75;;
31402;SDS011;18039;52.188;21.024;2022-10-31T04:03:26;44.50;;;25.77;;
31402;SDS011;18039;52.188;21.024;2022-10-31T04:06:00;43.53;;;24.95;;
31402;SDS011;18039;52.188;21.024;2022-10-31T04:08:33;43.30;;;25.00;;
31402;SDS011;18039;52.188;21.024;2022-10-31T04:11:07;47.10;;;25.48;;
31402;SDS011;18039;52.188;21.024;2022-10-31T04:13:40;40.10;;;24.77;;
31402;SDS011;18039;52.188;21.024;2022-10-31T04:16:14;38.53;;;24.60;;
31402;SDS011;18039;52.188;21.024;2022-10-31T04:18:43;45.22;;;24.50;;
31402;SDS011;18039;52.188;21.024;2022-10-31T04:21:10;39.13;;;23.70;;
31402;SDS011;18039;52.188;21.024;2022-10-31T04:23:38;35.33;;;22.30;;
31402;SDS011;18039;52.188;21.024;2022-10-31T04:26:15;41.67;;;24.15;;
31402;SDS011;18039;52.188;21.024;2022-10-31T04:28:43;45.20;;;23.30;;
31402;SDS011;18039;52.188;21.024;2022-10-31T04:31:11;38.15;;;22.92;;
31402;SDS011;18039;52.188;21.024;2022-10-31T04:33:41;41.00;;;22.90;;
31402;SDS011;18039;52.188;21.024;2022-10-31T04:36:08;43.85;;;25.10;;
31402;SDS011;18039;52.188;21.024;2022-10-31T04:38:36;42.20;;;24.25;;
31402;SDS011;18039;52.188;21.024;2022-10-31T04:41:12;41.53;;;23.75;;
31402;SDS011;18039;52.188;21.024;2022-10-31T04:43:57;42.00;;;22.73;;
31402;SDS011;18039;52.188;21.024;2022-10-31T04:46:26;39.53;;;23.40;;
31402;SDS011;18039;52.188;21.024;2022-10-31T04:48:55;38.38;;;23.27;;
31402;SDS011;18039;52.188;21.024;2022-10-31T04:51:23;44.47;;;25.08;;
31402;SDS011;18039;52.188;21.024;2022-10-31T04:53:51;41.70;;;24.17;;
31402;SDS011;18039;52.188;21.024;2022-10-31T04:56:27;38.88;;;23.75;;
31402;SDS011;18039;52.188;21.024;2022-10-31T04:58:59;39.83;;;24.13;;
31402;SDS011;18039;52.188;21.024;2022-10-31T05:01:32;41.85;;;25.50;;
31402;SDS011;18039;52.188;21.024;2022-10-31T05:04:00;37.75;;;23.48;;
31402;SDS011;18039;52.188;21.024;2022-10-31T05:06:28;42.88;;;23.65;;
31402;SDS011;18039;52.188;21.024;2022-10-31T05:08:56;39.63;;;23.02;;
31402;SDS011;18039;52.188;21.024;2022-10-31T05:11:23;36.88;;;22.45;;
31402;SDS011;18039;52.188;21.024;2022-10-31T05:13:52;35.85;;;22.30;;
31402;SDS011;18039;52.188;21.024;2022-10-31T05:16:45;39.28;;;23.48;;
31402;SDS011;18039;52.188;21.024;2022-10-31T05:19:44;45.08;;;23.80;;
31402;SDS011;18039;52.188;21.024;2022-10-31T05:22:44;41.83;;;23.85;;
31402;SDS011;18039;52.188;21.024;2022-10-31T05:25:12;34.83;;;22.40;;
31402;SDS011;18039;52.188;21.024;2022-10-31T05:27:40;36.70;;;22.95;;
31402;SDS011;18039;52.188;21.024;2022-10-31T05:30:09;40.25;;;23.63;;
31402;SDS011;18039;52.188;21.024;2022-10-31T05:35:29;36.53;;;23.00;;
31402;SDS011;18039;52.188;21.024;2022-10-31T05:38:26;39.70;;;24.17;;
31402;SDS011;18039;52.188;21.024;2022-10-31T05:40:57;42.50;;;22.77;;
31402;SDS011;18039;52.188;21.024;2022-10-31T05:43:28;39.90;;;24.55;;
31402;SDS011;18039;52.188;21.024;2022-10-31T05:45:56;41.63;;;22.65;;
31402;SDS011;18039;52.188;21.024;2022-10-31T05:48:42;45.80;;;24.48;;
31402;SDS011;18039;52.188;21.024;2022-10-31T05:51:27;36.53;;;23.10;;
31402;SDS011;18039;52.188;21.024;2022-10-31T05:53:55;37.17;;;22.80;;
31402;SDS011;18039;52.188;21.024;2022-10-31T05:56:23;37.00;;;22.70;;
31402;SDS011;18039;52.188;21.024;2022-10-31T05:58:50;39.17;;;23.90;;
31402;SDS011;18039;52.188;21.024;2022-10-31T06:01:17;36.63;;;22.55;;
31402;SDS011;18039;52.188;21.024;2022-10-31T06:03:45;37.65;;;23.33;;
31402;SDS011;18039;52.188;21.024;2022-10-31T06:06:15;42.65;;;23.60;;
31402;SDS011;18039;52.188;21.024;2022-10-31T06:08:42;39.88;;;22.40;;
31402;SDS011;18039;52.188;21.024;2022-10-31T06:11:18;39.40;;;24.05;;
31402;SDS011;18039;52.188;21.024;2022-10-31T06:14:09;40.95;;;22.63;;
31402;SDS011;18039;52.188;21.024;2022-10-31T06:16:48;38.35;;;22.00;;
31402;SDS011;18039;52.188;21.024;2022-10-31T06:19:34;40.92;;;22.98;;
31402;SDS011;18039;52.188;21.024;2022-10-31T06:22:01;45.25;;;23.20;;
31402;SDS011;18039;52.188;21.024;2022-10-31T06:24:29;40.25;;;23.13;;
31402;SDS011;18039;52.188;21.024;2022-10-31T06:27:06;46.83;;;25.80;;
31402;SDS011;18039;52.188;21.024;2022-10-31T06:29:33;42.58;;;25.45;;
31402;SDS011;18039;52.188;21.024;2022-10-31T06:32:05;47.60;;;26.75;;
31402;SDS011;18039;52.188;21.024;2022-10-31T06:34:38;50.30;;;26.48;;
31402;SDS011;18039;52.188;21.024;2022-10-31T06:37:07;51.92;;;27.23;;
31402;SDS011;18039;52.188;21.024;2022-10-31T06:39:36;59.40;;;26.30;;
31402;SDS011;18039;52.188;21.024;2022-10-31T06:42:04;57.63;;;26.90;;
31402;SDS011;18039;52.188;21.024;2022-10-31T06:44:32;61.80;;;26.42;;
31402;SDS011;18039;52.188;21.024;2022-10-31T06:47:22;52.28;;;26.90;;
31402;SDS011;18039;52.188;21.024;2022-10-31T06:50:05;59.78;;;25.23;;
31402;SDS011;18039;52.188;21.024;2022-10-31T06:52:33;44.15;;;23.85;;
31402;SDS011;18039;52.188;21.024;2022-10-31T06:55:02;46.75;;;23.67;;
31402;SDS011;18039;52.188;21.024;2022-10-31T06:57:30;43.30;;;22.50;;
31402;SDS011;18039;52.188;21.024;2022-10-31T06:59:57;43.15;;;22.38;;
31402;SDS011;18039;52.188;21.024;2022-10-31T07:02:34;40.63;;;23.23;;
31402;SDS011;18039;52.188;21.024;2022-10-31T07:05:03;44.95;;;23.05;;
31402;SDS011;18039;52.188;21.024;2022-10-31T07:07:32;42.17;;;21.77;;
31402;SDS011;18039;52.188;21.024;2022-10-31T07:09:59;39.40;;;20.88;;
31402;SDS011;18039;52.188;21.024;2022-10-31T07:12:48;45.25;;;22.35;;
31402;SDS011;18039;52.188;21.024;2022-10-31T07:15:20;41.55;;;21.95;;
31402;SDS011;18039;52.188;21.024;2022-10-31T07:17:47;39.35;;;20.60;;
31402;SDS011;18039;52.188;21.024;2022-10-31T07:20:15;39.00;;;21.50;;
31402;SDS011;18039;52.188;21.024;2022-10-31T07:22:42;33.50;;;20.30;;
31402;SDS011;18039;52.188;21.024;2022-10-31T07:25:15;39.22;;;20.23;;
31402;SDS011;18039;52.188;21.024;2022-10-31T07:28:21;39.53;;;20.67;;
31402;SDS011;18039;52.188;21.024;2022-10-31T07:30:51;40.35;;;20.80;;
31402;SDS011;18039;52.188;21.024;2022-10-31T07:33:20;40.03;;;21.38;;
31402;SDS011;18039;52.188;21.024;2022-10-31T07:36:06;37.05;;;21.33;;
31402;SDS011;18039;52.188;21.024;2022-10-31T07:38:33;41.60;;;21.95;;
31402;SDS011;18039;52.188;21.024;2022-10-31T07:41:03;51.03;;;21.63;;
31402;SDS011;18039;52.188;21.024;2022-10-31T07:43:36;42.75;;;21.77;;
31402;SDS011;18039;52.188;21.024;2022-10-31T07:46:15;50.28;;;21.77;;
31402;SDS011;18039;52.188;21.024;2022-10-31T07:49:05;45.25;;;21.40;;
31402;SDS011;18039;52.188;21.024;2022-10-31T07:51:51;40.58;;;20.70;;
31402;SDS011;18039;52.188;21.024;2022-10-31T07:54:39;46.63;;;21.92;;
31402;SDS011;18039;52.188;21.024;2022-10-31T07:57:08;45.40;;;21.13;;
31402;SDS011;18039;52.188;21.024;2022-10-31T07:59:37;41.20;;;21.77;;
31402;SDS011;18039;52.188;21.024;2022-10-31T08:02:07;37.03;;;20.70;;
31402;SDS011;18039;52.188;21.024;2022-10-31T08:04:47;44.47;;;22.80;;
31402;SDS011;18039;52.188;21.024;2022-10-31T08:07:35;40.13;;;20.83;;
31402;SDS011;18039;52.188;21.024;2022-10-31T08:10:06;48.60;;;20.48;;
31402;SDS011;18039;52.188;21.024;2022-10-31T08:12:34;45.63;;;20.70;;
31402;SDS011;18039;52.188;21.024;2022-10-31T08:15:05;44.33;;;20.75;;
31402;SDS011;18039;52.188;21.024;2022-10-31T08:17:37;45.40;;;21.90;;
31402;SDS011;18039;52.188;21.024;2022-10-31T08:20:06;43.83;;;21.67;;
31402;SDS011;18039;52.188;21.024;2022-10-31T08:22:41;48.80;;;21.75;;
31402;SDS011;18039;52.188;21.024;2022-10-31T08:25:10;40.17;;;21.23;;
31402;SDS011;18039;52.188;21.024;2022-10-31T08:27:39;48.15;;;21.02;;
31402;SDS011;18039;52.188;21.024;2022-10-31T08:30:11;42.67;;;22.33;;
31402;SDS011;18039;52.188;21.024;2022-10-31T08:32:46;46.00;;;20.13;;
31402;SDS011;18039;52.188;21.024;2022-10-31T08:35:32;41.33;;;20.55;;
31402;SDS011;18039;52.188;21.024;2022-10-31T08:38:32;41.42;;;22.35;;
31402;SDS011;18039;52.188;21.024;2022-10-31T08:41:02;40.83;;;19.92;;
31402;SDS011;18039;52.188;21.024;2022-10-31T08:43:29;41.00;;;21.85;;
31402;SDS011;18039;52.188;21.024;2022-10-31T08:45:56;41.10;;;20.58;;
31402;SDS011;18039;52.188;21.024;2022-10-31T08:48:27;40.25;;;20.83;;
31402;SDS011;18039;52.188;21.024;2022-10-31T08:50:56;43.70;;;20.45;;
31402;SDS011;18039;52.188;21.024;2022-10-31T08:53:25;35.45;;;19.58;;
31402;SDS011;18039;52.188;21.024;2022-10-31T08:56:09;37.58;;;20.38;;
31402;SDS011;18039;52.188;21.024;2022-10-31T08:58:37;34.22;;;18.20;;
31402;SDS011;18039;52.188;21.024;2022-10-31T09:01:07;36.33;;;18.90;;
31402;SDS011;18039;52.188;21.024;2022-10-31T09:03:35;38.28;;;18.98;;
31402;SDS011;18039;52.188;21.024;2022-10-31T09:06:02;38.80;;;19.65;;
31402;SDS011;18039;52.188;21.024;2022-10-31T09:08:30;37.90;;;19.60;;
31402;SDS011;18039;52.188;21.024;2022-10-31T09:10:59;37.85;;;20.17;;
31402;SDS011;18039;52.188;21.024;2022-10-31T09:13:45;31.67;;;17.25;;
31402;SDS011;18039;52.188;21.024;2022-10-31T09:16:42;34.83;;;18.52;;
31402;SDS011;18039;52.188;21.024;2022-10-31T09:19:16;30.98;;;18.95;;
31402;SDS011;18039;52.188;21.024;2022-10-31T09:21:45;35.42;;;19.02;;
31402;SDS011;18039;52.188;21.024;2022-10-31T09:24:12;33.03;;;18.30;;
31402;SDS011;18039;52.188;21.024;2022-10-31T09:26:41;36.17;;;19.52;;
31402;SDS011;18039;52.188;21.024;2022-10-31T09:29:26;33.80;;;18.80;;
31402;SDS011;18039;52.188;21.024;2022-10-31T09:31:57;32.33;;;18.23;;
31402;SDS011;18039;52.188;21.024;2022-10-31T09:37:07;31.25;;;18.38;;
31402;SDS011;18039;52.188;21.024;2022-10-31T09:39:34;33.83;;;19.10;;
31402;SDS011;18039;52.188;21.024;2022-10-31T09:50:53;37.42;;;22.02;;
31402;SDS011;18039;52.188;21.024;2022-10-31T09:53:56;37.35;;;21.95;;
31402;SDS011;18039;52.188;21.024;2022-10-31T09:56:24;37.22;;;22.05;;
31402;SDS011;18039;52.188;21.024;2022-10-31T09:58:57;36.47;;;21.35;;
31402;SDS011;18039;52.188;21.024;2022-10-31T10:01:37;38.97;;;23.25;;
31402;SDS011;18039;52.188;21.024;2022-10-31T10:07:11;45.50;;;24.98;;
31402;SDS011;18039;52.188;21.024;2022-10-31T10:13:24;39.80;;;23.52;;
31402;SDS011;18039;52.188;21.024;2022-10-31T10:21:36;37.97;;;23.50;;
31402;SDS011;18039;52.188;21.024;2022-10-31T10:24:35;38.63;;;23.35;;
31402;SDS011;18039;52.188;21.024;2022-10-31T10:27:30;39.22;;;22.27;;
31402;SDS011;18039;52.188;21.024;2022-10-31T10:30:02;33.83;;;20.88;;
31402;SDS011;18039;52.188;21.024;2022-10-31T10:32:43;35.25;;;21.05;;
31402;SDS011;18039;52.188;21.024;2022-10-31T10:35:25;31.90;;;20.02;;
31402;SDS011;18039;52.188;21.024;2022-10-31T10:38:02;31.10;;;19.42;;
31402;SDS011;18039;52.188;21.024;2022-10-31T10:40:38;32.80;;;19.95;;
31402;SDS011;18039;52.188;21.024;2022-10-31T10:51:46;29.75;;;17.98;;
31402;SDS011;18039;52.188;21.024;2022-10-31T10:57:58;26.60;;;16.48;;
31402;SDS011;18039;52.188;21.024;2022-10-31T11:00:30;26.63;;;16.50;;
31402;SDS011;18039;52.188;21.024;2022-10-31T11:02:59;30.00;;;16.65;;
31402;SDS011;18039;52.188;21.024;2022-10-31T11:08:09;24.58;;;16.15;;
31402;SDS011;18039;52.188;21.024;2022-10-31T11:10:35;25.33;;;15.70;;
31402;SDS011;18039;52.188;21.024;2022-10-31T11:15:37;25.67;;;16.27;;
31402;SDS011;18039;52.188;21.024;2022-10-31T11:18:19;26.38;;;15.27;;
31402;SDS011;18039;52.188;21.024;2022-10-31T11:20:57;25.08;;;14.63;;
31402;SDS011;18039;52.188;21.024;2022-10-31T11:23:27;25.77;;;15.70;;
31402;SDS011;18039;52.188;21.024;2022-10-31T11:26:16;26.60;;;14.82;;
31402;SDS011;18039;52.188;21.024;2022-10-31T11:28:56;24.58;;;15.75;;
31402;SDS011;18039;52.188;21.024;2022-10-31T11:31:25;24.80;;;14.27;;
31402;SDS011;18039;52.188;21.024;2022-10-31T11:34:00;24.90;;;15.52;;
31402;SDS011;18039;52.188;21.024;2022-10-31T11:36:31;25.52;;;14.52;;
31402;SDS011;18039;52.188;21.024;2022-10-31T11:39:02;26.08;;;15.02;;
31402;SDS011;18039;52.188;21.024;2022-10-31T11:41:35;27.63;;;15.55;;
31402;SDS011;18039;52.188;21.024;2022-10-31T11:44:25;30.60;;;15.90;;
31402;SDS011;18039;52.188;21.024;2022-10-31T11:46:56;29.30;;;16.35;;
31402;SDS011;18039;52.188;21.024;2022-10-31T11:49:39;27.20;;;15.75;;
31402;SDS011;18039;52.188;21.024;2022-10-31T11:52:16;24.77;;;15.25;;
31402;SDS011;18039;52.188;21.024;2022-10-31T11:54:48;26.10;;;14.68;;
31402;SDS011;18039;52.188;21.024;2022-10-31T11:57:26;28.40;;;15.43;;
31402;SDS011;18039;52.188;21.024;2022-10-31T11:59:56;25.55;;;16.02;;
31402;SDS011;18039;52.188;21.024;2022-10-31T12:02:25;30.15;;;15.55;;
31402;SDS011;18039;52.188;21.024;2022-10-31T12:05:17;28.60;;;16.30;;
31402;SDS011;18039;52.188;21.024;2022-10-31T12:07:59;28.85;;;15.48;;
31402;SDS011;18039;52.188;21.024;2022-10-31T12:10:34;28.13;;;15.65;;
31402;SDS011;18039;52.188;21.024;2022-10-31T12:13:16;29.15;;;16.13;;
31402;SDS011;18039;52.188;21.024;2022-10-31T12:15:49;28.88;;;15.70;;
31402;SDS011;18039;52.188;21.024;2022-10-31T12:18:34;28.48;;;15.82;;
31402;SDS011;18039;52.188;21.024;2022-10-31T12:27:05;29.75;;;15.38;;
31402;SDS011;18039;52.188;21.024;2022-10-31T12:40:46;34.47;;;17.58;;
31402;SDS011;18039;52.188;21.024;2022-10-31T12:46:04;34.35;;;18.00;;
31402;SDS011;18039;52.188;21.024;2022-10-31T12:56:46;38.88;;;20.25;;
31402;SDS011;18039;52.188;21.024;2022-10-31T13:01:51;33.15;;;19.27;;
31402;SDS011;18039;52.188;21.024;2022-10-31T13:07:24;36.15;;;20.02;;
31402;SDS011;18039;52.188;21.024;2022-10-31T13:10:05;33.15;;;19.75;;
31402;SDS011;18039;52.188;21.024;2022-10-31T13:12:44;38.40;;;20.17;;
31402;SDS011;18039;52.188;21.024;2022-10-31T13:15:16;35.08;;;20.98;;
31402;SDS011;18039;52.188;21.024;2022-10-31T13:17:53;33.90;;;20.08;;
31402;SDS011;18039;52.188;21.024;2022-10-31T13:20:27;35.22;;;19.65;;
31402;SDS011;18039;52.188;21.024;2022-10-31T13:31:40;38.50;;;20.42;;
31402;SDS011;18039;52.188;21.024;2022-10-31T13:40:01;39.90;;;21.08;;
31402;SDS011;18039;52.188;21.024;2022-10-31T13:43:06;39.22;;;21.67;;
31402;SDS011;18039;52.188;21.024;2022-10-31T13:45:49;36.33;;;20.55;;
31402;SDS011;18039;52.188;21.024;2022-10-31T13:56:29;39.50;;;21.73;;
31402;SDS011;18039;52.188;21.024;2022-10-31T14:01:49;37.45;;;21.45;;
31402;SDS011;18039;52.188;21.024;2022-10-31T14:04:20;40.20;;;22.52;;
31402;SDS011;18039;52.188;21.024;2022-10-31T14:07:07;38.22;;;22.98;;
31402;SDS011;18039;52.188;21.024;2022-10-31T14:09:49;40.30;;;23.30;;
31402;SDS011;18039;52.188;21.024;2022-10-31T14:12:23;42.28;;;22.02;;
31402;SDS011;18039;52.188;21.024;2022-10-31T14:15:00;43.25;;;22.40;;
31402;SDS011;18039;52.188;21.024;2022-10-31T14:17:38;43.17;;;24.00;;
31402;SDS011;18039;52.188;21.024;2022-10-31T14:26:16;51.75;;;25.55;;
31402;SDS011;18039;52.188;21.024;2022-10-31T14:28:43;45.75;;;24.95;;
31402;SDS011;18039;52.188;21.024;2022-10-31T14:33:59;47.40;;;24.42;;
31402;SDS011;18039;52.188;21.024;2022-10-31T14:36:48;45.22;;;24.55;;
31402;SDS011;18039;52.188;21.024;2022-10-31T14:39:34;42.63;;;23.05;;
31402;SDS011;18039;52.188;21.024;2022-10-31T14:47:46;42.15;;;23.25;;
31402;SDS011;18039;52.188;21.024;2022-10-31T14:53:08;53.83;;;24.70;;
31402;SDS011;18039;52.188;21.024;2022-10-31T14:55:45;43.40;;;22.83;;
31402;SDS011;18039;52.188;21.024;2022-10-31T14:58:17;50.03;;;24.58;;
31402;SDS011;18039;52.188;21.024;2022-10-31T15:00:48;50.13;;;25.67;;
31402;SDS011;18039;52.188;21.024;2022-10-31T15:03:22;51.40;;;23.20;;
31402;SDS011;18039;52.188;21.024;2022-10-31T15:05:56;52.70;;;25.05;;
31402;SDS011;18039;52.188;21.024;2022-10-31T15:11:26;56.75;;;24.77;;
31402;SDS011;18039;52.188;21.024;2022-10-31T15:13:55;63.45;;;24.75;;
31402;SDS011;18039;52.188;21.024;2022-10-31T15:16:24;59.22;;;23.10;;
31402;SDS011;18039;52.188;21.024;2022-10-31T15:21:40;56.95;;;25.77;;
31402;SDS011;18039;52.188;21.024;2022-10-31T15:24:12;57.33;;;25.30;;
31402;SDS011;18039;52.188;21.024;2022-10-31T15:26:50;62.25;;;26.48;;
31402;SDS011;18039;52.188;21.024;2022-10-31T15:29:21;65.22;;;25.48;;
31402;SDS011;18039;52.188;21.024;2022-10-31T15:31:53;54.03;;;26.90;;
31402;SDS011;18039;52.188;21.024;2022-10-31T15:34:22;61.85;;;26.33;;
31402;SDS011;18039;52.188;21.024;2022-10-31T15:37:00;66.88;;;29.08;;
31402;SDS011;18039;52.188;21.024;2022-10-31T15:39:28;65.32;;;29.27;;
31402;SDS011;18039;52.188;21.024;2022-10-31T15:41:58;71.78;;;28.77;;
31402;SDS011;18039;52.188;21.024;2022-10-31T15:44:27;73.57;;;30.63;;
31402;SDS011;18039;52.188;21.024;2022-10-31T15:46:57;74.93;;;30.10;;
31402;SDS011;18039;52.188;21.024;2022-10-31T15:49:48;70.25;;;30.60;;
31402;SDS011;18039;52.188;21.024;2022-10-31T15:52:23;69.20;;;30.15;;
31402;SDS011;18039;52.188;21.024;2022-10-31T15:54:59;78.70;;;31.45;;
31402;SDS011;18039;52.188;21.024;2022-10-31T15:57:29;79.13;;;32.15;;
31402;SDS011;18039;52.188;21.024;2022-10-31T15:59:57;73.82;;;32.20;;
31402;SDS011;18039;52.188;21.024;2022-10-31T16:02:26;76.18;;;32.45;;
31402;SDS011;18039;52.188;21.024;2022-10-31T16:04:56;79.82;;;31.50;;
31402;SDS011;18039;52.188;21.024;2022-10-31T16:07:23;77.68;;;31.90;;
31402;SDS011;18039;52.188;21.024;2022-10-31T16:09:53;72.28;;;32.45;;
31402;SDS011;18039;52.188;21.024;2022-10-31T16:12:22;76.20;;;32.57;;
31402;SDS011;18039;52.188;21.024;2022-10-31T16:14:51;80.13;;;30.40;;
31402;SDS011;18039;52.188;21.024;2022-10-31T16:17:21;75.32;;;31.88;;
31402;SDS011;18039;52.188;21.024;2022-10-31T16:22:25;69.68;;;30.92;;
31402;SDS011;18039;52.188;21.024;2022-10-31T16:27:35;78.95;;;32.38;;
31402;SDS011;18039;52.188;21.024;2022-10-31T16:30:27;72.45;;;30.10;;
31402;SDS011;18039;52.188;21.024;2022-10-31T16:32:55;75.93;;;30.85;;
31402;SDS011;18039;52.188;21.024;2022-10-31T16:35:32;76.55;;;30.70;;
31402;SDS011;18039;52.188;21.024;2022-10-31T16:38:06;78.30;;;31.30;;
31402;SDS011;18039;52.188;21.024;2022-10-31T16:40:37;67.57;;;28.63;;
31402;SDS011;18039;52.188;21.024;2022-10-31T16:43:05;77.45;;;31.55;;
31402;SDS011;18039;52.188;21.024;2022-10-31T16:45:42;78.85;;;30.30;;
31402;SDS011;18039;52.188;21.024;2022-10-31T16:48:17;78.25;;;28.45;;
31402;SDS011;18039;52.188;21.024;2022-10-31T16:50:48;83.82;;;29.10;;
31402;SDS011;18039;52.188;21.024;2022-10-31T16:53:16;80.55;;;28.77;;
31402;SDS011;18039;52.188;21.024;2022-10-31T16:55:57;81.40;;;29.02;;
31402;SDS011;18039;52.188;21.024;2022-10-31T16:58:28;78.75;;;30.13;;
31402;SDS011;18039;52.188;21.024;2022-10-31T17:00:57;83.38;;;29.83;;
31402;SDS011;18039;52.188;21.024;2022-10-31T17:03:25;86.30;;;30.17;;
31402;SDS011;18039;52.188;21.024;2022-10-31T17:05:52;91.57;;;30.48;;
31402;SDS011;18039;52.188;21.024;2022-10-31T17:08:22;92.68;;;32.25;;
31402;SDS011;18039;52.188;21.024;2022-10-31T17:10:51;88.55;;;31.08;;
31402;SDS011;18039;52.188;21.024;2022-10-31T17:13:21;104.20;;;33.80;;
31402;SDS011;18039;52.188;21.024;2022-10-31T17:15:52;97.43;;;33.25;;
31402;SDS011;18039;52.188;21.024;2022-10-31T17:18:21;104.57;;;33.25;;
31402;SDS011;18039;52.188;21.024;2022-10-31T17:20:57;101.47;;;33.97;;
31402;SDS011;18039;52.188;21.024;2022-10-31T17:23:25;91.85;;;32.95;;
31402;SDS011;18039;52.188;21.024;2022-10-31T17:25:54;111.40;;;34.40;;
31402;SDS011;18039;52.188;21.024;2022-10-31T17:28:22;100.95;;;34.17;;
31402;SDS011;18039;52.188;21.024;2022-10-31T17:30:55;113.43;;;34.28;;
31402;SDS011;18039;52.188;21.024;2022-10-31T17:33:25;113.38;;;35.35;;
31402;SDS011;18039;52.188;21.024;2022-10-31T17:35:52;115.60;;;36.42;;